sensor_id;sensor_type;location;lat;lon;timestamp;P1;durP1;ratioP1;P2;durP2;ratioP2
31126;SDS011;17775;57.948;12.514;2023-04-25T00:01:50;8.07;;;4.00;;
31126;SDS011;17775;57.948;12.514;2023-04-25T00:04:17;6.65;;;4.25;;
31126;SDS011;17775;57.948;12.514;2023-04-25T00:06:44;5.53;;;4.10;;
31126;SDS011;17775;57.948;12.514;2023-04-25T00:09:11;8.40;;;3.60;;
31126;SDS011;17775;57.948;12.514;2023-04-25T00:11:37;6.43;;;4.38;;
31126;SDS011;17775;57.948;12.514;2023-04-25T00:14:04;10.18;;;5.88;;
31126;SDS011;17775;57.948;12.514;2023-04-25T00:16:30;9.65;;;6.22;;
31126;SDS011;17775;57.948;12.514;2023-04-25T00:19:00;10.35;;;4.47;;
31126;SDS011;17775;57.948;12.514;2023-04-25T00:21:27;7.70;;;4.45;;
31126;SDS011;17775;57.948;12.514;2023-04-25T00:23:54;6.78;;;4.50;;
31126;SDS011;17775;57.948;12.514;2023-04-25T00:26:21;7.28;;;5.07;;
31126;SDS011;17775;57.948;12.514;2023-04-25T00:28:48;8.80;;;5.18;;
31126;SDS011;17775;57.948;12.514;2023-04-25T00:31:14;8.70;;;4.85;;
31126;SDS011;17775;57.948;12.514;2023-04-25T00:33:41;6.95;;;4.18;;
31126;SDS011;17775;57.948;12.514;2023-04-25T00:36:07;6.80;;;4.07;;
31126;SDS011;17775;57.948;12.514;2023-04-25T00:38:34;7.18;;;5.22;;
31126;SDS011;17775;57.948;12.514;2023-04-25T00:41:00;6.57;;;4.28;;
31126;SDS011;17775;57.948;12.514;2023-04-25T00:43:27;7.72;;;4.25;;
31126;SDS011;17775;57.948;12.514;2023-04-25T00:45:53;8.52;;;4.57;;
31126;SDS011;17775;57.948;12.514;2023-04-25T00:48:29;10.55;;;5.55;;
31126;SDS011;17775;57.948;12.514;2023-04-25T00:50:56;11.32;;;6.38;;
31126;SDS011;17775;57.948;12.514;2023-04-25T00:53:24;7.05;;;4.38;;
31126;SDS011;17775;57.948;12.514;2023-04-25T00:55:51;8.85;;;5.05;;
31126;SDS011;17775;57.948;12.514;2023-04-25T00:58:18;9.60;;;5.75;;
31126;SDS011;17775;57.948;12.514;2023-04-25T01:00:48;10.25;;;5.70;;
31126;SDS011;17775;57.948;12.514;2023-04-25T01:03:16;12.88;;;6.03;;
31126;SDS011;17775;57.948;12.514;2023-04-25T01:05:46;11.40;;;5.93;;
31126;SDS011;17775;57.948;12.514;2023-04-25T01:08:13;12.43;;;6.20;;
31126;SDS011;17775;57.948;12.514;2023-04-25T01:10:40;10.70;;;5.82;;
31126;SDS011;17775;57.948;12.514;2023-04-25T01:13:07;14.27;;;7.63;;
31126;SDS011;17775;57.948;12.514;2023-04-25T01:15:33;13.55;;;6.70;;
31126;SDS011;17775;57.948;12.514;2023-04-25T01:18:03;16.98;;;7.05;;
31126;SDS011;17775;57.948;12.514;2023-04-25T01:20:29;14.10;;;6.95;;
31126;SDS011;17775;57.948;12.514;2023-04-25T01:22:57;15.68;;;7.50;;
31126;SDS011;17775;57.948;12.514;2023-04-25T01:25:24;12.57;;;7.32;;
31126;SDS011;17775;57.948;12.514;2023-04-25T01:27:50;12.20;;;6.50;;
31126;SDS011;17775;57.948;12.514;2023-04-25T01:30:17;14.38;;;6.20;;
31126;SDS011;17775;57.948;12.514;2023-04-25T01:32:44;12.30;;;6.78;;
31126;SDS011;17775;57.948;12.514;2023-04-25T01:35:13;14.77;;;6.30;;
31126;SDS011;17775;57.948;12.514;2023-04-25T01:37:40;27.67;;;6.95;;
31126;SDS011;17775;57.948;12.514;2023-04-25T01:40:07;19.13;;;6.82;;
31126;SDS011;17775;57.948;12.514;2023-04-25T01:42:35;11.80;;;6.07;;
31126;SDS011;17775;57.948;12.514;2023-04-25T01:45:01;12.43;;;6.05;;
31126;SDS011;17775;57.948;12.514;2023-04-25T01:47:28;10.88;;;5.70;;
31126;SDS011;17775;57.948;12.514;2023-04-25T01:49:58;7.97;;;4.70;;
31126;SDS011;17775;57.948;12.514;2023-04-25T01:52:24;17.55;;;6.82;;
31126;SDS011;17775;57.948;12.514;2023-04-25T01:54:51;20.42;;;6.90;;
31126;SDS011;17775;57.948;12.514;2023-04-25T01:57:17;16.95;;;6.60;;
31126;SDS011;17775;57.948;12.514;2023-04-25T01:59:43;11.57;;;6.22;;
31126;SDS011;17775;57.948;12.514;2023-04-25T02:02:10;17.40;;;7.20;;
31126;SDS011;17775;57.948;12.514;2023-04-25T02:04:37;16.33;;;6.75;;
31126;SDS011;17775;57.948;12.514;2023-04-25T02:07:04;16.55;;;6.10;;
31126;SDS011;17775;57.948;12.514;2023-04-25T02:09:30;16.75;;;6.93;;
31126;SDS011;17775;57.948;12.514;2023-04-25T02:11:57;14.75;;;6.65;;
31126;SDS011;17775;57.948;12.514;2023-04-25T02:14:23;15.32;;;6.32;;
31126;SDS011;17775;57.948;12.514;2023-04-25T02:16:50;21.50;;;6.75;;
31126;SDS011;17775;57.948;12.514;2023-04-25T02:19:17;20.55;;;6.93;;
31126;SDS011;17775;57.948;12.514;2023-04-25T02:21:43;13.90;;;6.30;;
31126;SDS011;17775;57.948;12.514;2023-04-25T02:24:10;14.05;;;7.10;;
31126;SDS011;17775;57.948;12.514;2023-04-25T02:26:36;13.40;;;6.95;;
31126;SDS011;17775;57.948;12.514;2023-04-25T02:29:03;12.70;;;6.32;;
31126;SDS011;17775;57.948;12.514;2023-04-25T02:31:29;15.23;;;6.68;;
31126;SDS011;17775;57.948;12.514;2023-04-25T02:33:56;12.45;;;6.20;;
31126;SDS011;17775;57.948;12.514;2023-04-25T02:36:22;12.48;;;6.22;;
31126;SDS011;17775;57.948;12.514;2023-04-25T02:38:48;16.65;;;7.03;;
31126;SDS011;17775;57.948;12.514;2023-04-25T02:41:15;23.98;;;7.90;;
31126;SDS011;17775;57.948;12.514;2023-04-25T02:43:41;19.13;;;7.28;;
31126;SDS011;17775;57.948;12.514;2023-04-25T02:46:08;27.40;;;8.07;;
31126;SDS011;17775;57.948;12.514;2023-04-25T02:48:34;15.38;;;7.30;;
31126;SDS011;17775;57.948;12.514;2023-04-25T02:51:01;22.15;;;7.38;;
31126;SDS011;17775;57.948;12.514;2023-04-25T02:53:27;20.38;;;6.97;;
31126;SDS011;17775;57.948;12.514;2023-04-25T02:55:54;21.60;;;7.28;;
31126;SDS011;17775;57.948;12.514;2023-04-25T02:58:20;11.98;;;5.93;;
31126;SDS011;17775;57.948;12.514;2023-04-25T03:00:47;18.40;;;6.97;;
31126;SDS011;17775;57.948;12.514;2023-04-25T03:03:13;21.70;;;7.45;;
31126;SDS011;17775;57.948;12.514;2023-04-25T03:05:41;18.67;;;6.97;;
31126;SDS011;17775;57.948;12.514;2023-04-25T03:08:07;17.15;;;6.65;;
31126;SDS011;17775;57.948;12.514;2023-04-25T03:10:34;18.75;;;7.50;;
31126;SDS011;17775;57.948;12.514;2023-04-25T03:13:00;22.67;;;7.78;;
31126;SDS011;17775;57.948;12.514;2023-04-25T03:15:26;21.63;;;7.40;;
31126;SDS011;17775;57.948;12.514;2023-04-25T03:17:53;23.60;;;8.50;;
31126;SDS011;17775;57.948;12.514;2023-04-25T03:20:19;18.55;;;7.20;;
31126;SDS011;17775;57.948;12.514;2023-04-25T03:22:46;16.10;;;7.13;;
31126;SDS011;17775;57.948;12.514;2023-04-25T03:25:12;19.55;;;7.15;;
31126;SDS011;17775;57.948;12.514;2023-04-25T03:27:39;16.40;;;7.15;;
31126;SDS011;17775;57.948;12.514;2023-04-25T03:30:05;19.85;;;7.47;;
31126;SDS011;17775;57.948;12.514;2023-04-25T03:32:33;19.60;;;6.82;;
31126;SDS011;17775;57.948;12.514;2023-04-25T03:35:00;24.40;;;7.72;;
31126;SDS011;17775;57.948;12.514;2023-04-25T03:37:26;18.73;;;7.53;;
31126;SDS011;17775;57.948;12.514;2023-04-25T03:39:52;17.30;;;8.20;;
31126;SDS011;17775;57.948;12.514;2023-04-25T03:42:19;11.30;;;6.15;;
31126;SDS011;17775;57.948;12.514;2023-04-25T03:44:46;16.10;;;6.80;;
31126;SDS011;17775;57.948;12.514;2023-04-25T03:47:12;18.75;;;7.32;;
31126;SDS011;17775;57.948;12.514;2023-04-25T03:49:38;14.80;;;6.75;;
31126;SDS011;17775;57.948;12.514;2023-04-25T03:52:05;17.30;;;7.25;;
31126;SDS011;17775;57.948;12.514;2023-04-25T03:54:31;14.35;;;6.47;;
31126;SDS011;17775;57.948;12.514;2023-04-25T03:56:58;14.27;;;6.20;;
31126;SDS011;17775;57.948;12.514;2023-04-25T03:59:24;13.63;;;6.28;;
31126;SDS011;17775;57.948;12.514;2023-04-25T04:01:52;14.90;;;6.95;;
31126;SDS011;17775;57.948;12.514;2023-04-25T04:04:18;16.48;;;6.10;;
31126;SDS011;17775;57.948;12.514;2023-04-25T04:06:45;14.32;;;5.75;;
31126;SDS011;17775;57.948;12.514;2023-04-25T04:09:12;13.35;;;5.95;;
31126;SDS011;17775;57.948;12.514;2023-04-25T04:11:38;12.07;;;5.20;;
31126;SDS011;17775;57.948;12.514;2023-04-25T04:14:07;10.00;;;5.13;;
31126;SDS011;17775;57.948;12.514;2023-04-25T04:16:34;12.38;;;4.97;;
31126;SDS011;17775;57.948;12.514;2023-04-25T04:19:00;10.90;;;5.32;;
31126;SDS011;17775;57.948;12.514;2023-04-25T04:21:27;11.25;;;5.25;;
31126;SDS011;17775;57.948;12.514;2023-04-25T04:23:53;10.27;;;5.05;;
31126;SDS011;17775;57.948;12.514;2023-04-25T04:26:20;10.43;;;5.35;;
31126;SDS011;17775;57.948;12.514;2023-04-25T04:28:52;8.63;;;4.47;;
31126;SDS011;17775;57.948;12.514;2023-04-25T04:31:20;11.15;;;4.85;;
31126;SDS011;17775;57.948;12.514;2023-04-25T04:33:47;12.23;;;5.80;;
31126;SDS011;17775;57.948;12.514;2023-04-25T04:36:14;8.45;;;4.80;;
31126;SDS011;17775;57.948;12.514;2023-04-25T04:38:41;9.70;;;4.70;;
31126;SDS011;17775;57.948;12.514;2023-04-25T04:41:08;11.43;;;4.78;;
31126;SDS011;17775;57.948;12.514;2023-04-25T04:43:34;12.15;;;5.57;;
31126;SDS011;17775;57.948;12.514;2023-04-25T04:46:04;12.55;;;5.57;;
31126;SDS011;17775;57.948;12.514;2023-04-25T04:48:31;16.67;;;6.20;;
31126;SDS011;17775;57.948;12.514;2023-04-25T04:51:01;12.23;;;5.60;;
31126;SDS011;17775;57.948;12.514;2023-04-25T04:53:27;15.52;;;6.82;;
31126;SDS011;17775;57.948;12.514;2023-04-25T04:55:54;12.75;;;6.38;;
31126;SDS011;17775;57.948;12.514;2023-04-25T04:58:21;17.58;;;6.85;;
31126;SDS011;17775;57.948;12.514;2023-04-25T05:00:47;16.17;;;6.93;;
31126;SDS011;17775;57.948;12.514;2023-04-25T05:03:14;20.20;;;7.82;;
31126;SDS011;17775;57.948;12.514;2023-04-25T05:05:41;19.05;;;8.15;;
31126;SDS011;17775;57.948;12.514;2023-04-25T05:08:07;18.95;;;7.53;;
31126;SDS011;17775;57.948;12.514;2023-04-25T05:10:33;17.70;;;7.30;;
31126;SDS011;17775;57.948;12.514;2023-04-25T05:13:00;20.65;;;7.57;;
31126;SDS011;17775;57.948;12.514;2023-04-25T05:15:26;22.85;;;8.30;;
31126;SDS011;17775;57.948;12.514;2023-04-25T05:17:53;21.88;;;9.15;;
31126;SDS011;17775;57.948;12.514;2023-04-25T05:20:19;28.30;;;9.88;;
31126;SDS011;17775;57.948;12.514;2023-04-25T05:22:46;21.35;;;8.98;;
31126;SDS011;17775;57.948;12.514;2023-04-25T05:25:12;30.35;;;10.43;;
31126;SDS011;17775;57.948;12.514;2023-04-25T05:27:39;24.20;;;11.02;;
31126;SDS011;17775;57.948;12.514;2023-04-25T05:30:05;25.88;;;11.23;;
31126;SDS011;17775;57.948;12.514;2023-04-25T05:32:32;25.13;;;11.93;;
31126;SDS011;17775;57.948;12.514;2023-04-25T05:34:59;29.17;;;12.65;;
31126;SDS011;17775;57.948;12.514;2023-04-25T05:37:25;29.00;;;12.02;;
31126;SDS011;17775;57.948;12.514;2023-04-25T05:39:52;28.50;;;13.10;;
31126;SDS011;17775;57.948;12.514;2023-04-25T05:42:19;28.67;;;12.60;;
31126;SDS011;17775;57.948;12.514;2023-04-25T05:44:45;26.23;;;12.38;;
31126;SDS011;17775;57.948;12.514;2023-04-25T05:47:12;28.55;;;13.70;;
31126;SDS011;17775;57.948;12.514;2023-04-25T05:49:38;30.17;;;13.35;;
31126;SDS011;17775;57.948;12.514;2023-04-25T05:52:05;30.35;;;13.80;;
31126;SDS011;17775;57.948;12.514;2023-04-25T05:54:31;29.42;;;14.05;;
31126;SDS011;17775;57.948;12.514;2023-04-25T05:56:57;30.13;;;12.98;;
31126;SDS011;17775;57.948;12.514;2023-04-25T05:59:24;28.75;;;13.25;;
31126;SDS011;17775;57.948;12.514;2023-04-25T06:01:51;31.27;;;14.18;;
31126;SDS011;17775;57.948;12.514;2023-04-25T06:04:17;27.38;;;14.32;;
31126;SDS011;17775;57.948;12.514;2023-04-25T06:06:44;28.80;;;12.85;;
31126;SDS011;17775;57.948;12.514;2023-04-25T06:09:11;27.13;;;14.18;;
31126;SDS011;17775;57.948;12.514;2023-04-25T06:11:39;22.83;;;12.70;;
31126;SDS011;17775;57.948;12.514;2023-04-25T06:14:06;18.60;;;11.23;;
31126;SDS011;17775;57.948;12.514;2023-04-25T06:16:33;18.38;;;10.77;;
31126;SDS011;17775;57.948;12.514;2023-04-25T06:18:59;18.33;;;10.25;;
31126;SDS011;17775;57.948;12.514;2023-04-25T06:21:26;14.82;;;9.02;;
31126;SDS011;17775;57.948;12.514;2023-04-25T06:23:53;16.08;;;9.23;;
31126;SDS011;17775;57.948;12.514;2023-04-25T06:26:19;19.90;;;11.85;;
31126;SDS011;17775;57.948;12.514;2023-04-25T06:28:47;17.77;;;10.02;;
31126;SDS011;17775;57.948;12.514;2023-04-25T06:31:14;13.07;;;8.20;;
31126;SDS011;17775;57.948;12.514;2023-04-25T06:33:41;18.33;;;9.15;;
31126;SDS011;17775;57.948;12.514;2023-04-25T06:36:07;15.95;;;10.07;;
31126;SDS011;17775;57.948;12.514;2023-04-25T06:38:33;15.10;;;8.68;;
31126;SDS011;17775;57.948;12.514;2023-04-25T06:41:01;16.55;;;9.75;;
31126;SDS011;17775;57.948;12.514;2023-04-25T06:43:27;17.63;;;10.25;;
31126;SDS011;17775;57.948;12.514;2023-04-25T06:45:53;16.45;;;9.05;;
31126;SDS011;17775;57.948;12.514;2023-04-25T06:48:20;15.20;;;9.18;;
31126;SDS011;17775;57.948;12.514;2023-04-25T06:50:46;17.60;;;8.75;;
31126;SDS011;17775;57.948;12.514;2023-04-25T06:53:13;14.77;;;7.70;;
31126;SDS011;17775;57.948;12.514;2023-04-25T06:55:40;13.93;;;7.68;;
31126;SDS011;17775;57.948;12.514;2023-04-25T06:58:06;14.90;;;8.15;;
31126;SDS011;17775;57.948;12.514;2023-04-25T07:00:33;13.50;;;7.95;;
31126;SDS011;17775;57.948;12.514;2023-04-25T07:02:59;12.32;;;7.68;;
31126;SDS011;17775;57.948;12.514;2023-04-25T07:05:26;13.98;;;8.18;;
31126;SDS011;17775;57.948;12.514;2023-04-25T07:07:53;15.25;;;9.05;;
31126;SDS011;17775;57.948;12.514;2023-04-25T07:10:19;12.45;;;7.18;;
31126;SDS011;17775;57.948;12.514;2023-04-25T07:12:47;13.30;;;7.15;;
31126;SDS011;17775;57.948;12.514;2023-04-25T07:15:13;10.85;;;6.65;;
31126;SDS011;17775;57.948;12.514;2023-04-25T07:17:40;11.07;;;6.20;;
31126;SDS011;17775;57.948;12.514;2023-04-25T07:20:07;11.18;;;6.28;;
31126;SDS011;17775;57.948;12.514;2023-04-25T07:22:35;13.02;;;6.50;;
31126;SDS011;17775;57.948;12.514;2023-04-25T07:25:01;16.42;;;7.15;;
31126;SDS011;17775;57.948;12.514;2023-04-25T07:27:28;10.05;;;6.22;;
31126;SDS011;17775;57.948;12.514;2023-04-25T07:29:54;10.02;;;6.28;;
31126;SDS011;17775;57.948;12.514;2023-04-25T07:32:21;8.80;;;6.10;;
31126;SDS011;17775;57.948;12.514;2023-04-25T07:34:47;9.07;;;5.53;;
31126;SDS011;17775;57.948;12.514;2023-04-25T07:37:14;9.40;;;5.60;;
31126;SDS011;17775;57.948;12.514;2023-04-25T07:39:41;8.15;;;5.20;;
31126;SDS011;17775;57.948;12.514;2023-04-25T07:42:11;6.85;;;4.65;;
31126;SDS011;17775;57.948;12.514;2023-04-25T07:44:37;7.75;;;4.78;;
31126;SDS011;17775;57.948;12.514;2023-04-25T07:47:06;7.57;;;4.50;;
31126;SDS011;17775;57.948;12.514;2023-04-25T07:49:37;7.00;;;5.00;;
31126;SDS011;17775;57.948;12.514;2023-04-25T07:52:04;8.48;;;4.13;;
31126;SDS011;17775;57.948;12.514;2023-04-25T07:54:32;6.30;;;4.13;;
31126;SDS011;17775;57.948;12.514;2023-04-25T07:56:58;6.28;;;4.28;;
31126;SDS011;17775;57.948;12.514;2023-04-25T07:59:25;6.95;;;4.30;;
31126;SDS011;17775;57.948;12.514;2023-04-25T08:01:55;7.80;;;4.30;;
31126;SDS011;17775;57.948;12.514;2023-04-25T08:04:23;7.60;;;4.50;;
31126;SDS011;17775;57.948;12.514;2023-04-25T08:06:50;8.38;;;4.40;;
31126;SDS011;17775;57.948;12.514;2023-04-25T08:09:16;7.85;;;4.03;;
31126;SDS011;17775;57.948;12.514;2023-04-25T08:11:43;8.05;;;4.60;;
31126;SDS011;17775;57.948;12.514;2023-04-25T08:14:09;11.00;;;4.80;;
31126;SDS011;17775;57.948;12.514;2023-04-25T08:16:36;7.03;;;4.40;;
31126;SDS011;17775;57.948;12.514;2023-04-25T08:19:02;8.05;;;4.18;;
31126;SDS011;17775;57.948;12.514;2023-04-25T08:21:29;6.47;;;4.40;;
31126;SDS011;17775;57.948;12.514;2023-04-25T08:23:55;10.48;;;4.43;;
31126;SDS011;17775;57.948;12.514;2023-04-25T08:26:22;10.63;;;3.88;;
31126;SDS011;17775;57.948;12.514;2023-04-25T08:28:49;8.50;;;3.80;;
31126;SDS011;17775;57.948;12.514;2023-04-25T08:31:16;7.05;;;3.92;;
31126;SDS011;17775;57.948;12.514;2023-04-25T08:33:45;6.95;;;3.53;;
31126;SDS011;17775;57.948;12.514;2023-04-25T08:36:12;7.35;;;4.00;;
31126;SDS011;17775;57.948;12.514;2023-04-25T08:38:42;4.53;;;2.92;;
31126;SDS011;17775;57.948;12.514;2023-04-25T08:41:08;6.13;;;2.50;;
31126;SDS011;17775;57.948;12.514;2023-04-25T08:43:37;4.82;;;2.58;;
31126;SDS011;17775;57.948;12.514;2023-04-25T08:46:03;6.88;;;2.85;;
31126;SDS011;17775;57.948;12.514;2023-04-25T08:48:32;7.30;;;2.97;;
31126;SDS011;17775;57.948;12.514;2023-04-25T08:50:58;7.60;;;2.70;;
31126;SDS011;17775;57.948;12.514;2023-04-25T08:53:27;4.65;;;1.85;;
31126;SDS011;17775;57.948;12.514;2023-04-25T08:55:55;7.00;;;2.17;;
31126;SDS011;17775;57.948;12.514;2023-04-25T08:58:22;5.47;;;2.47;;
31126;SDS011;17775;57.948;12.514;2023-04-25T09:00:49;6.03;;;2.05;;
31126;SDS011;17775;57.948;12.514;2023-04-25T09:03:16;6.95;;;1.90;;
31126;SDS011;17775;57.948;12.514;2023-04-25T09:05:43;3.08;;;1.95;;
31126;SDS011;17775;57.948;12.514;2023-04-25T09:08:10;7.75;;;2.20;;
31126;SDS011;17775;57.948;12.514;2023-04-25T09:10:37;4.38;;;1.70;;
31126;SDS011;17775;57.948;12.514;2023-04-25T09:13:10;3.85;;;1.85;;
31126;SDS011;17775;57.948;12.514;2023-04-25T09:18:13;2.40;;;1.40;;
31126;SDS011;17775;57.948;12.514;2023-04-25T09:20:43;3.63;;;1.38;;
31126;SDS011;17775;57.948;12.514;2023-04-25T09:23:27;4.40;;;1.60;;
31126;SDS011;17775;57.948;12.514;2023-04-25T09:25:53;2.95;;;1.30;;
31126;SDS011;17775;57.948;12.514;2023-04-25T09:28:24;2.80;;;1.30;;
31126;SDS011;17775;57.948;12.514;2023-04-25T09:30:56;4.25;;;1.63;;
31126;SDS011;17775;57.948;12.514;2023-04-25T09:33:28;2.08;;;1.25;;
31126;SDS011;17775;57.948;12.514;2023-04-25T09:36:06;3.65;;;0.90;;
31126;SDS011;17775;57.948;12.514;2023-04-25T09:38:40;3.22;;;0.80;;
31126;SDS011;17775;57.948;12.514;2023-04-25T09:41:08;2.75;;;0.93;;
31126;SDS011;17775;57.948;12.514;2023-04-25T09:43:35;4.45;;;0.90;;
31126;SDS011;17775;57.948;12.514;2023-04-25T09:46:02;2.90;;;1.10;;
31126;SDS011;17775;57.948;12.514;2023-04-25T09:48:29;1.38;;;0.77;;
31126;SDS011;17775;57.948;12.514;2023-04-25T09:53:39;3.70;;;1.02;;
31126;SDS011;17775;57.948;12.514;2023-04-25T09:56:06;4.63;;;1.00;;
31126;SDS011;17775;57.948;12.514;2023-04-25T09:58:34;3.22;;;1.00;;
31126;SDS011;17775;57.948;12.514;2023-04-25T10:01:05;3.40;;;1.10;;
31126;SDS011;17775;57.948;12.514;2023-04-25T10:03:32;2.88;;;0.90;;
31126;SDS011;17775;57.948;12.514;2023-04-25T10:05:59;2.92;;;0.82;;
31126;SDS011;17775;57.948;12.514;2023-04-25T10:08:33;2.20;;;0.63;;
31126;SDS011;17775;57.948;12.514;2023-04-25T10:11:01;4.82;;;0.80;;
31126;SDS011;17775;57.948;12.514;2023-04-25T10:13:30;1.50;;;0.77;;
31126;SDS011;17775;57.948;12.514;2023-04-25T10:16:00;2.08;;;0.60;;
31126;SDS011;17775;57.948;12.514;2023-04-25T10:18:27;1.70;;;0.77;;
31126;SDS011;17775;57.948;12.514;2023-04-25T10:20:54;3.50;;;0.70;;
31126;SDS011;17775;57.948;12.514;2023-04-25T10:23:22;2.80;;;0.70;;
31126;SDS011;17775;57.948;12.514;2023-04-25T10:25:49;1.15;;;0.70;;
31126;SDS011;17775;57.948;12.514;2023-04-25T10:28:17;2.08;;;0.73;;
31126;SDS011;17775;57.948;12.514;2023-04-25T10:30:56;3.65;;;1.00;;
31126;SDS011;17775;57.948;12.514;2023-04-25T10:33:33;4.07;;;0.90;;
31126;SDS011;17775;57.948;12.514;2023-04-25T10:36:21;2.30;;;0.80;;
31126;SDS011;17775;57.948;12.514;2023-04-25T10:38:50;1.90;;;1.10;;
31126;SDS011;17775;57.948;12.514;2023-04-25T10:41:17;3.80;;;1.10;;
31126;SDS011;17775;57.948;12.514;2023-04-25T10:43:45;3.53;;;0.93;;
31126;SDS011;17775;57.948;12.514;2023-04-25T10:46:22;2.78;;;0.68;;
31126;SDS011;17775;57.948;12.514;2023-04-25T10:51:15;2.72;;;0.85;;
31126;SDS011;17775;57.948;12.514;2023-04-25T10:53:45;2.67;;;1.10;;
31126;SDS011;17775;57.948;12.514;2023-04-25T10:56:28;1.90;;;0.88;;
31126;SDS011;17775;57.948;12.514;2023-04-25T10:59:28;4.80;;;0.98;;
31126;SDS011;17775;57.948;12.514;2023-04-25T11:01:49;3.28;;;0.75;;
31126;SDS011;17775;57.948;12.514;2023-04-25T11:04:30;3.65;;;1.05;;
31126;SDS011;17775;57.948;12.514;2023-04-25T11:09:32;4.05;;;1.33;;
31126;SDS011;17775;57.948;12.514;2023-04-25T11:11:59;2.30;;;0.90;;
31126;SDS011;17775;57.948;12.514;2023-04-25T11:14:26;3.60;;;0.90;;
31126;SDS011;17775;57.948;12.514;2023-04-25T11:16:57;7.03;;;0.98;;
31126;SDS011;17775;57.948;12.514;2023-04-25T11:19:26;3.88;;;1.10;;
31126;SDS011;17775;57.948;12.514;2023-04-25T11:21:56;3.50;;;0.90;;
31126;SDS011;17775;57.948;12.514;2023-04-25T11:24:30;2.42;;;0.65;;
31126;SDS011;17775;57.948;12.514;2023-04-25T11:26:59;2.50;;;1.02;;
31126;SDS011;17775;57.948;12.514;2023-04-25T11:29:30;5.57;;;1.17;;
31126;SDS011;17775;57.948;12.514;2023-04-25T11:31:57;2.47;;;1.10;;
31126;SDS011;17775;57.948;12.514;2023-04-25T11:34:30;1.23;;;0.68;;
31126;SDS011;17775;57.948;12.514;2023-04-25T11:36:57;4.03;;;1.63;;
31126;SDS011;17775;57.948;12.514;2023-04-25T11:39:24;4.55;;;1.00;;
31126;SDS011;17775;57.948;12.514;2023-04-25T11:41:51;7.38;;;0.90;;
31126;SDS011;17775;57.948;12.514;2023-04-25T11:44:18;2.13;;;0.88;;
31126;SDS011;17775;57.948;12.514;2023-04-25T11:46:45;3.70;;;0.73;;
31126;SDS011;17775;57.948;12.514;2023-04-25T11:49:12;4.38;;;1.05;;
31126;SDS011;17775;57.948;12.514;2023-04-25T11:51:42;2.47;;;1.00;;
31126;SDS011;17775;57.948;12.514;2023-04-25T11:54:09;4.15;;;1.10;;
31126;SDS011;17775;57.948;12.514;2023-04-25T11:56:36;2.15;;;0.73;;
31126;SDS011;17775;57.948;12.514;2023-04-25T11:59:04;3.88;;;0.80;;
31126;SDS011;17775;57.948;12.514;2023-04-25T12:01:35;1.65;;;0.82;;
31126;SDS011;17775;57.948;12.514;2023-04-25T12:04:14;1.73;;;0.70;;
31126;SDS011;17775;57.948;12.514;2023-04-25T12:06:42;1.05;;;0.68;;
31126;SDS011;17775;57.948;12.514;2023-04-25T12:09:15;4.28;;;1.00;;
31126;SDS011;17775;57.948;12.514;2023-04-25T12:11:44;1.00;;;0.70;;
31126;SDS011;17775;57.948;12.514;2023-04-25T12:14:11;2.33;;;0.90;;
31126;SDS011;17775;57.948;12.514;2023-04-25T12:16:44;1.35;;;0.98;;
31126;SDS011;17775;57.948;12.514;2023-04-25T12:19:14;3.47;;;1.00;;
31126;SDS011;17775;57.948;12.514;2023-04-25T12:21:41;4.05;;;1.30;;
31126;SDS011;17775;57.948;12.514;2023-04-25T12:24:24;2.30;;;1.10;;
31126;SDS011;17775;57.948;12.514;2023-04-25T12:29:22;4.43;;;1.23;;
31126;SDS011;17775;57.948;12.514;2023-04-25T12:31:53;2.15;;;0.80;;
31126;SDS011;17775;57.948;12.514;2023-04-25T12:34:20;4.43;;;1.13;;
31126;SDS011;17775;57.948;12.514;2023-04-25T12:36:47;2.47;;;0.90;;
31126;SDS011;17775;57.948;12.514;2023-04-25T12:39:17;2.95;;;1.10;;
31126;SDS011;17775;57.948;12.514;2023-04-25T12:44:12;4.53;;;1.05;;
31126;SDS011;17775;57.948;12.514;2023-04-25T12:46:40;3.33;;;1.38;;
31126;SDS011;17775;57.948;12.514;2023-04-25T12:49:07;4.38;;;1.23;;
31126;SDS011;17775;57.948;12.514;2023-04-25T12:51:44;3.72;;;1.30;;
31126;SDS011;17775;57.948;12.514;2023-04-25T12:54:11;3.92;;;1.30;;
31126;SDS011;17775;57.948;12.514;2023-04-25T12:56:37;4.72;;;2.05;;
31126;SDS011;17775;57.948;12.514;2023-04-25T12:59:04;5.82;;;1.60;;
31126;SDS011;17775;57.948;12.514;2023-04-25T13:01:30;2.72;;;1.15;;
31126;SDS011;17775;57.948;12.514;2023-04-25T13:04:01;3.33;;;1.00;;
31126;SDS011;17775;57.948;12.514;2023-04-25T13:06:28;3.22;;;1.20;;
31126;SDS011;17775;57.948;12.514;2023-04-25T13:08:56;2.60;;;1.02;;
31126;SDS011;17775;57.948;12.514;2023-04-25T13:11:22;3.08;;;1.02;;
31126;SDS011;17775;57.948;12.514;2023-04-25T13:13:49;3.13;;;1.00;;
31126;SDS011;17775;57.948;12.514;2023-04-25T13:16:15;5.18;;;1.63;;
31126;SDS011;17775;57.948;12.514;2023-04-25T13:18:42;1.83;;;1.67;;
31126;SDS011;17775;57.948;12.514;2023-04-25T13:21:11;4.07;;;1.00;;
31126;SDS011;17775;57.948;12.514;2023-04-25T13:23:38;2.50;;;1.13;;
31126;SDS011;17775;57.948;12.514;2023-04-25T13:26:05;4.00;;;2.08;;
31126;SDS011;17775;57.948;12.514;2023-04-25T13:28:31;2.65;;;1.00;;
31126;SDS011;17775;57.948;12.514;2023-04-25T13:30:58;2.90;;;1.15;;
31126;SDS011;17775;57.948;12.514;2023-04-25T13:33:25;14.85;;;3.08;;
31126;SDS011;17775;57.948;12.514;2023-04-25T13:35:52;3.85;;;1.13;;
31126;SDS011;17775;57.948;12.514;2023-04-25T13:38:23;4.30;;;1.13;;
31126;SDS011;17775;57.948;12.514;2023-04-25T13:40:49;3.40;;;0.88;;
31126;SDS011;17775;57.948;12.514;2023-04-25T13:43:16;5.65;;;1.17;;
31126;SDS011;17775;57.948;12.514;2023-04-25T13:45:42;2.95;;;1.20;;
31126;SDS011;17775;57.948;12.514;2023-04-25T13:48:09;4.43;;;1.15;;
31126;SDS011;17775;57.948;12.514;2023-04-25T13:50:35;0.88;;;0.80;;
31126;SDS011;17775;57.948;12.514;2023-04-25T13:53:02;1.80;;;1.00;;
31126;SDS011;17775;57.948;12.514;2023-04-25T13:55:28;3.90;;;1.00;;
31126;SDS011;17775;57.948;12.514;2023-04-25T13:57:55;3.03;;;1.10;;
31126;SDS011;17775;57.948;12.514;2023-04-25T14:00:21;11.23;;;2.95;;
31126;SDS011;17775;57.948;12.514;2023-04-25T14:02:48;4.88;;;2.38;;
31126;SDS011;17775;57.948;12.514;2023-04-25T14:05:16;3.80;;;1.27;;
31126;SDS011;17775;57.948;12.514;2023-04-25T14:07:42;4.32;;;1.10;;
31126;SDS011;17775;57.948;12.514;2023-04-25T14:10:09;2.92;;;0.70;;
31126;SDS011;17775;57.948;12.514;2023-04-25T14:12:37;1.80;;;0.90;;
31126;SDS011;17775;57.948;12.514;2023-04-25T14:15:04;4.60;;;1.00;;
31126;SDS011;17775;57.948;12.514;2023-04-25T14:17:31;1.25;;;0.75;;
31126;SDS011;17775;57.948;12.514;2023-04-25T14:19:57;2.30;;;0.95;;
31126;SDS011;17775;57.948;12.514;2023-04-25T14:22:24;2.53;;;0.90;;
31126;SDS011;17775;57.948;12.514;2023-04-25T14:24:51;3.25;;;0.80;;
31126;SDS011;17775;57.948;12.514;2023-04-25T14:27:18;1.65;;;0.63;;
31126;SDS011;17775;57.948;12.514;2023-04-25T14:29:44;3.28;;;0.80;;
31126;SDS011;17775;57.948;12.514;2023-04-25T14:32:11;4.82;;;1.10;;
31126;SDS011;17775;57.948;12.514;2023-04-25T14:34:37;2.00;;;0.80;;
31126;SDS011;17775;57.948;12.514;2023-04-25T14:37:04;1.83;;;1.00;;
31126;SDS011;17775;57.948;12.514;2023-04-25T14:39:30;2.03;;;0.90;;
31126;SDS011;17775;57.948;12.514;2023-04-25T14:41:57;2.40;;;1.00;;
31126;SDS011;17775;57.948;12.514;2023-04-25T14:44:23;2.22;;;0.70;;
31126;SDS011;17775;57.948;12.514;2023-04-25T14:46:50;7.15;;;1.00;;